Time;durP1;ratioP1;P1;durP2;ratioP2;P2;SDS_P1;SDS_P2;PMS_P1;PMS_P2;Temp;Humidity;BMP_temperature;BMP_pressure;BME280_temperature;BME280_humidity;BME280_pressure;Samples;Min_cycle;Max_cycle;Signal;HPM_P1;HPM_P2
2023/03/01 00:01:05;;;;;;;1999.90;999.90;;;;;;;1.39;100.00;95778.88;5084277;28;20167;-65
2023/03/01 00:03:32;;;;;;;1999.90;999.90;;;;;;;1.40;100.00;95780.44;5084370;28;20169;-65
2023/03/01 00:05:57;;;;;;;1999.90;999.90;;;;;;;1.34;100.00;95771.00;5083768;28;20214;-65
2023/03/01 00:08:23;;;;;;;1999.90;999.90;;;;;;;1.43;100.00;95763.63;5083409;28;20176;-65
2023/03/01 00:10:48;;;;;;;1999.90;999.90;;;;;;;1.29;100.00;95763.16;5083596;28;20208;-64
2023/03/01 00:13:14;;;;;;;1999.90;999.90;;;;;;;1.35;100.00;95761.03;5083647;28;20176;-64
2023/03/01 00:15:41;;;;;;;1999.90;999.90;;;;;;;1.35;100.00;95761.81;5083682;28;20208;-63
2023/03/01 00:18:07;;;;;;;1999.90;999.90;;;;;;;1.37;100.00;95758.78;5083992;28;20321;-63
2023/03/01 00:20:33;;;;;;;1999.90;999.90;;;;;;;1.36;100.00;95763.41;5084352;28;20198;-63
2023/03/01 00:22:59;;;;;;;1999.90;999.90;;;;;;;1.37;100.00;95770.34;5084087;28;20173;-64
2023/03/01 00:25:24;;;;;;;1999.90;999.90;;;;;;;1.29;100.00;95757.78;5083558;28;20420;-63
2023/03/01 00:27:50;;;;;;;1999.90;999.90;;;;;;;1.41;100.00;95765.84;5083511;28;20200;-64
2023/03/01 00:30:15;;;;;;;1999.90;999.90;;;;;;;1.39;100.00;95760.03;5083456;28;20204;-63
2023/03/01 00:32:41;;;;;;;1999.90;999.90;;;;;;;1.36;100.00;95758.03;5083388;28;20239;-63
2023/03/01 00:35:06;;;;;;;1999.90;999.90;;;;;;;1.42;100.00;95756.66;5083303;28;20171;-64
2023/03/01 00:37:32;;;;;;;1999.90;999.90;;;;;;;1.39;100.00;95751.97;5085003;28;20176;-63
2023/03/01 00:39:57;;;;;;;1999.90;999.90;;;;;;;1.36;100.00;95749.94;5088172;28;20188;-63
2023/03/01 00:42:23;;;;;;;1999.90;999.90;;;;;;;1.43;100.00;95752.06;5087878;28;20214;-63
2023/03/01 00:44:48;;;;;;;1999.90;999.90;;;;;;;1.29;100.00;95755.09;5087733;28;20209;-63
2023/03/01 00:47:13;;;;;;;1999.90;999.90;;;;;;;1.33;100.00;95752.50;5087674;28;20253;-63
2023/03/01 00:49:39;;;;;;;1999.90;999.90;;;;;;;1.39;100.00;95751.97;5087053;28;20202;-63
2023/03/01 00:52:05;;;;;;;1999.90;999.90;;;;;;;1.36;100.00;95746.47;5087251;28;20175;-63
2023/03/01 00:54:30;;;;;;;1999.90;999.90;;;;;;;1.40;100.00;95745.47;5087239;28;20195;-63
2023/03/01 00:56:56;;;;;;;1999.90;999.90;;;;;;;1.29;100.00;95733.59;5087537;28;20172;-63
2023/03/01 00:59:21;;;;;;;1999.90;999.90;;;;;;;1.31;100.00;95744.78;5087039;28;20175;-63
2023/03/01 01:01:46;;;;;;;1999.90;999.90;;;;;;;1.32;100.00;95730.22;5086914;28;20222;-64
2023/03/01 01:04:13;;;;;;;1999.90;999.90;;;;;;;1.24;100.00;95731.09;5086858;28;20173;-65
2023/03/01 01:06:44;;;;;;;1999.90;999.90;;;;;;;1.32;100.00;95722.16;5087031;28;20172;-64
2023/03/01 01:09:16;;;;;;;1999.90;999.90;;;;;;;1.31;100.00;95723.25;5086876;28;20174;-65
2023/03/01 01:11:46;;;;;;;1999.90;999.90;;;;;;;1.34;100.00;95724.50;5087456;28;20173;-65
2023/03/01 01:14:12;;;;;;;1999.90;999.90;;;;;;;1.29;100.00;95728.22;5087424;28;20212;-64
2023/03/01 01:16:38;;;;;;;1999.90;999.90;;;;;;;1.27;100.00;95717.00;5086622;28;20219;-64
2023/03/01 01:19:04;;;;;;;1999.90;999.90;;;;;;;1.23;100.00;95716.09;5087038;28;20182;-64
2023/03/01 01:21:29;;;;;;;1999.90;999.90;;;;;;;1.26;100.00;95710.03;5086713;28;20179;-64
2023/03/01 01:23:54;;;;;;;1999.90;999.90;;;;;;;1.27;100.00;95710.84;5086511;28;20194;-64
2023/03/01 01:26:25;;;;;;;1999.90;999.90;;;;;;;1.36;100.00;95709.59;5086603;28;20267;-64
2023/03/01 01:28:51;;;;;;;1999.90;999.90;;;;;;;1.21;100.00;95720.25;5086948;28;20169;-64
2023/03/01 01:31:18;;;;;;;1999.90;999.90;;;;;;;1.24;100.00;95709.59;5086495;28;20246;-64
2023/03/01 01:33:44;;;;;;;1999.90;999.90;;;;;;;1.21;100.00;95702.22;5086931;28;20241;-64
2023/03/01 01:36:10;;;;;;;1999.90;999.90;;;;;;;1.15;100.00;95698.16;5086420;28;20174;-65
2023/03/01 01:38:36;;;;;;;1999.90;999.90;;;;;;;1.11;100.00;95696.47;5086952;28;20236;-66
2023/03/01 01:41:03;;;;;;;1999.90;999.90;;;;;;;1.17;100.00;95701.28;5086305;28;20256;-63
2023/03/01 01:43:33;;;;;;;1999.90;999.90;;;;;;;1.17;100.00;95695.16;5086465;28;20239;-63
2023/03/01 01:46:15;;;;;;;1999.90;999.90;;;;;;;1.21;100.00;95687.97;5086702;28;20168;-63
2023/03/01 01:48:44;;;;;;;1999.90;999.90;;;;;;;1.15;100.00;95683.94;5086536;28;20172;-65
2023/03/01 01:51:23;;;;;;;1999.90;999.90;;;;;;;1.15;100.00;95681.25;5086563;28;20202;-63
2023/03/01 01:53:54;;;;;;;1999.90;999.90;;;;;;;1.20;100.00;95673.72;5085756;28;20192;-66
2023/03/01 01:56:23;;;;;;;1999.90;999.90;;;;;;;1.18;100.00;95675.19;5086355;28;20239;-63
2023/03/01 01:58:50;;;;;;;1999.90;999.90;;;;;;;1.13;100.00;95678.88;5085915;28;20175;-63
2023/03/01 02:01:16;;;;;;;1999.90;999.90;;;;;;;1.14;100.00;95677.00;5085903;28;20467;-62
2023/03/01 02:03:44;;;;;;;1999.90;999.90;;;;;;;1.16;100.00;95674.75;5086366;28;20168;-61
2023/03/01 02:06:09;;;;;;;1999.90;999.90;;;;;;;1.15;100.00;95660.53;5086315;28;20204;-62
2023/03/01 02:08:38;;;;;;;1999.90;999.90;;;;;;;1.12;100.00;95666.56;5085868;28;20194;-62
2023/03/01 02:11:04;;;;;;;1999.90;999.90;;;;;;;1.06;100.00;95667.13;5085497;28;20197;-62
2023/03/01 02:13:31;;;;;;;1999.90;999.90;;;;;;;1.09;100.00;95667.22;5085635;28;20199;-62
2023/03/01 02:15:57;;;;;;;1999.90;999.90;;;;;;;1.09;100.00;95664.56;5086232;28;20174;-63
2023/03/01 02:18:24;;;;;;;1999.90;999.90;;;;;;;1.08;100.00;95665.69;5085550;28;20173;-61
2023/03/01 02:21:04;;;;;;;1999.90;999.90;;;;;;;1.08;100.00;95664.88;5085309;28;20179;-64
2023/03/01 02:23:30;;;;;;;1999.90;999.90;;;;;;;1.09;100.00;95661.84;5085402;28;20200;-63
2023/03/01 02:25:58;;;;;;;1999.90;999.90;;;;;;;1.05;100.00;95660.19;5085921;28;20183;-63
2023/03/01 02:28:31;;;;;;;1999.90;999.90;;;;;;;1.05;100.00;95654.81;5085045;28;20175;-63
2023/03/01 02:33:43;;;;;;;1999.90;999.90;;;;;;;1.05;100.00;95662.88;5086228;28;20171;-63
2023/03/01 02:36:17;;;;;;;1999.90;999.90;;;;;;;0.99;100.00;95661.53;5085696;28;20169;-63
2023/03/01 02:38:43;;;;;;;1999.90;999.90;;;;;;;0.88;100.00;95653.13;5084912;28;20181;-64
2023/03/01 02:41:13;;;;;;;1999.90;999.90;;;;;;;0.93;100.00;95658.28;5085577;28;20176;-63
2023/03/01 02:43:38;;;;;;;1999.90;999.90;;;;;;;0.93;100.00;95657.50;5084930;28;20183;-64
2023/03/01 02:46:25;;;;;;;1999.90;999.90;;;;;;;1.03;100.00;95652.47;5085032;28;20180;-63
2023/03/01 02:48:56;;;;;;;1999.90;999.90;;;;;;;1.06;100.00;95651.78;5085425;28;20171;-64
2023/03/01 02:51:45;;;;;;;1999.90;999.90;;;;;;;0.94;100.00;95651.78;5085367;28;20270;-64
2023/03/01 02:54:13;;;;;;;1999.90;999.90;;;;;;;0.91;100.00;95649.75;5084974;28;20209;-64
2023/03/01 02:56:40;;;;;;;1999.90;999.90;;;;;;;1.00;100.00;95653.13;5084872;28;20246;-63
2023/03/01 02:59:06;;;;;;;1999.90;999.90;;;;;;;1.07;100.00;95653.38;5085002;28;20175;-64
2023/03/01 03:01:37;;;;;;;1999.90;999.90;;;;;;;0.91;100.00;95660.50;5084262;28;20225;-64
2023/03/01 03:04:10;;;;;;;1999.90;999.90;;;;;;;0.82;100.00;95657.16;5085144;28;20187;-64
2023/03/01 03:06:36;;;;;;;1999.90;999.90;;;;;;;0.86;100.00;95660.75;5084557;28;20188;-63
2023/03/01 03:09:03;;;;;;;1999.90;999.90;;;;;;;0.81;100.00;95660.16;5084924;28;20203;-63
2023/03/01 03:11:30;;;;;;;1999.90;999.90;;;;;;;0.89;100.00;95662.75;5084379;28;20206;-63
2023/03/01 03:13:55;;;;;;;1999.90;999.90;;;;;;;0.86;100.00;95666.13;5084321;28;20464;-64
2023/03/01 03:16:21;;;;;;;1999.90;999.90;;;;;;;0.81;100.00;95668.22;5084220;28;20230;-64
2023/03/01 03:18:47;;;;;;;1999.90;999.90;;;;;;;0.82;100.00;95654.47;5084486;28;20195;-64
2023/03/01 03:21:13;;;;;;;1999.90;999.90;;;;;;;0.88;100.00;95655.03;5084330;28;20176;-63
2023/03/01 03:23:39;;;;;;;1999.90;999.90;;;;;;;0.87;100.00;95662.28;5084302;28;20194;-64
2023/03/01 03:26:05;;;;;;;1999.90;999.90;;;;;;;0.82;100.00;95667.91;5084777;28;20172;-64
2023/03/01 03:28:34;;;;;;;1999.90;999.90;;;;;;;0.76;100.00;95650.41;5084177;28;20237;-63
2023/03/01 03:31:03;;;;;;;1999.90;999.90;;;;;;;0.83;100.00;95660.63;5084137;28;20302;-64
2023/03/01 03:33:32;;;;;;;1999.90;999.90;;;;;;;0.81;100.00;95655.59;5084833;28;20175;-64
2023/03/01 03:35:57;;;;;;;1999.90;999.90;;;;;;;0.79;100.00;95652.44;5084084;28;20167;-63
2023/03/01 03:38:23;;;;;;;1999.90;999.90;;;;;;;0.73;100.00;95651.09;5084002;28;20183;-64
2023/03/01 03:41:02;;;;;;;1999.90;999.90;;;;;;;0.80;100.00;95640.56;5084024;28;20172;-64
2023/03/01 03:43:28;;;;;;;1999.90;999.90;;;;;;;0.71;100.00;95645.28;5083687;28;20174;-64
2023/03/01 03:45:54;;;;;;;1999.90;999.90;;;;;;;0.74;100.00;95639.25;5083910;28;20190;-65
2023/03/01 03:48:20;;;;;;;1999.90;999.90;;;;;;;0.72;100.00;95644.16;5084165;28;20341;-64
2023/03/01 03:50:56;;;;;;;1999.90;999.90;;;;;;;0.72;100.00;95641.47;5083913;28;20226;-64
2023/03/01 03:53:23;;;;;;;1999.90;999.90;;;;;;;0.71;100.00;95637.22;5083764;28;20194;-63
2023/03/01 03:55:51;;;;;;;1999.90;999.90;;;;;;;0.64;100.00;95631.59;5084323;28;20168;-62
2023/03/01 03:58:19;;;;;;;1999.90;999.90;;;;;;;0.69;100.00;95631.38;5083718;28;20193;-63
2023/03/01 04:00:46;;;;;;;1999.90;999.90;;;;;;;0.65;100.00;95619.72;5083886;28;20168;-62
2023/03/01 04:03:13;;;;;;;1999.90;999.90;;;;;;;0.57;100.00;95625.19;5083763;28;20171;-63
2023/03/01 04:05:40;;;;;;;1999.90;999.90;;;;;;;0.68;100.00;95624.44;5083776;28;20171;-62
2023/03/01 04:08:06;;;;;;;1999.90;999.90;;;;;;;0.65;100.00;95610.91;5083736;28;20179;-62
2023/03/01 04:10:41;;;;;;;1999.90;999.90;;;;;;;0.70;100.00;95610.69;5083736;28;20204;-63
2023/03/01 04:13:10;;;;;;;1999.90;999.90;;;;;;;0.59;100.00;95620.28;5086224;28;20224;-61
2023/03/01 04:15:36;;;;;;;1999.90;999.90;;;;;;;0.53;100.00;95617.03;5088398;28;20251;-62
2023/03/01 04:18:01;;;;;;;1999.90;999.90;;;;;;;0.56;100.00;95613.69;5087308;28;20216;-62
2023/03/01 04:20:30;;;;;;;1999.90;999.90;;;;;;;0.49;100.00;95610.78;5087772;28;20248;-62
2023/03/01 04:23:15;;;;;;;1999.90;999.90;;;;;;;0.50;100.00;95612.34;5087454;28;20198;-63
2023/03/01 04:25:45;;;;;;;1999.90;999.90;;;;;;;0.49;100.00;95613.47;5088154;28;20177;-62
2023/03/01 04:28:11;;;;;;;1999.90;999.90;;;;;;;0.53;100.00;95617.03;5088005;28;20163;-63
2023/03/01 04:30:38;;;;;;;1999.90;999.90;;;;;;;0.52;100.00;95610.09;5088064;28;20236;-62
2023/03/01 04:33:09;;;;;;;1999.90;999.90;;;;;;;0.43;100.00;95614.78;5088240;28;20174;-62
2023/03/01 04:35:36;;;;;;;1999.90;999.90;;;;;;;0.48;100.00;95609.22;5087858;28;20167;-63
2023/03/01 04:38:02;;;;;;;1999.90;999.90;;;;;;;0.42;100.00;95605.16;5087796;28;20171;-63
2023/03/01 04:40:27;;;;;;;1999.90;999.90;;;;;;;0.42;100.00;95615.91;5087432;28;20184;-64
2023/03/01 04:42:53;;;;;;;1999.90;999.90;;;;;;;0.27;100.00;95613.06;5086944;28;20190;-64
2023/03/01 04:45:18;;;;;;;1999.90;999.90;;;;;;;0.23;100.00;95602.22;5087750;28;20234;-63
2023/03/01 04:47:46;;;;;;;1999.90;999.90;;;;;;;0.21;100.00;95599.06;5087248;28;20168;-63
2023/03/01 04:50:14;;;;;;;1999.90;999.90;;;;;;;0.28;100.00;95598.56;5087115;28;20195;-63
2023/03/01 04:52:40;;;;;;;1999.90;999.90;;;;;;;0.27;100.00;95599.66;5086977;28;20167;-63
2023/03/01 04:55:06;;;;;;;1999.90;999.90;;;;;;;0.17;100.00;95598.16;5087030;28;20210;-64
2023/03/01 04:57:31;;;;;;;1999.90;999.90;;;;;;;0.17;100.00;95592.81;5086913;28;20199;-64
2023/03/01 04:59:57;;;;;;;1999.90;999.90;;;;;;;0.14;100.00;95588.09;5086634;28;20167;-63
2023/03/01 05:02:22;;;;;;;1999.90;999.90;;;;;;;0.12;100.00;95595.72;5087487;28;20191;-64
2023/03/01 05:04:48;;;;;;;1999.90;999.90;;;;;;;0.08;100.00;95590.22;5086582;28;20163;-63
2023/03/01 05:07:19;;;;;;;1999.90;999.90;;;;;;;0.02;100.00;95590.75;5086777;28;20169;-64
2023/03/01 05:09:45;;;;;;;1999.90;999.90;;;;;;;0.08;100.00;95596.69;5087175;28;20250;-63
2023/03/01 05:12:12;;;;;;;1999.90;999.90;;;;;;;0.04;100.00;95577.81;5087180;28;20217;-63
2023/03/01 05:14:38;;;;;;;1999.90;999.90;;;;;;;0.03;100.00;95586.94;5086659;28;20228;-63
2023/03/01 05:17:03;;;;;;;1999.90;999.90;;;;;;;0.13;100.00;95583.06;5086733;28;20500;-64
2023/03/01 05:19:30;;;;;;;1999.90;999.90;;;;;;;-0.08;100.00;95575.06;5087409;28;20167;-64
2023/03/01 05:22:03;;;;;;;1999.90;999.90;;;;;;;-0.06;100.00;95572.84;5086573;28;20171;-63
2023/03/01 05:24:31;;;;;;;1999.90;999.90;;;;;;;-0.07;100.00;95569.38;5086621;28;20418;-63
2023/03/01 05:26:56;;;;;;;1999.90;999.90;;;;;;;-0.16;100.00;95573.25;5087042;28;20164;-64
2023/03/01 05:29:26;;;;;;;1999.90;999.90;;;;;;;-0.18;100.00;95564.78;5086392;28;20242;-63
2023/03/01 05:31:57;;;;;;;1999.90;999.90;;;;;;;-0.17;100.00;95571.69;5086654;28;20235;-65
2023/03/01 05:34:35;;;;;;;1999.90;999.90;;;;;;;-0.15;100.00;95574.81;5086661;28;20202;-65
2023/03/01 05:37:01;;;;;;;1999.90;999.90;;;;;;;-0.28;100.00;95570.53;5086769;28;20217;-65
2023/03/01 05:39:29;;;;;;;1999.90;999.90;;;;;;;-0.31;100.00;95566.63;5086755;28;20317;-64
2023/03/01 05:42:00;;;;;;;1999.90;999.90;;;;;;;-0.34;100.00;95561.13;5086484;28;20172;-63
2023/03/01 05:44:27;;;;;;;1999.90;999.90;;;;;;;-0.28;100.00;95555.22;5086665;28;20166;-65
2023/03/01 05:46:53;;;;;;;1999.90;999.90;;;;;;;-0.23;100.00;95560.38;5086576;28;20171;-65
2023/03/01 05:49:18;;;;;;;1999.90;999.90;;;;;;;-0.30;100.00;95552.09;5085963;28;20180;-64
2023/03/01 05:51:48;;;;;;;1999.90;999.90;;;;;;;-0.33;100.00;95560.00;5086083;28;20175;-66
2023/03/01 05:54:14;;;;;;;1999.90;999.90;;;;;;;-0.23;100.00;95551.53;5086295;28;20183;-65
2023/03/01 05:56:39;;;;;;;1999.90;999.90;;;;;;;-0.24;100.00;95547.31;5085827;28;20258;-63
2023/03/01 05:59:05;;;;;;;1999.90;999.90;;;;;;;-0.24;100.00;95552.66;5085858;28;20246;-62
2023/03/01 06:01:32;;;;;;;1999.90;999.90;;;;;;;-0.28;100.00;95557.13;5085830;28;20225;-63
2023/03/01 06:03:57;;;;;;;1999.90;999.90;;;;;;;-0.30;100.00;95559.34;5086160;28;20187;-63
2023/03/01 06:06:23;;;;;;;1999.90;999.90;;;;;;;-0.30;100.00;95573.53;5085776;28;20166;-62
2023/03/01 06:08:49;;;;;;;1999.90;999.90;;;;;;;-0.37;100.00;95570.63;5085626;28;20265;-63
2023/03/01 06:11:15;;;;;;;1999.90;999.90;;;;;;;-0.39;100.00;95567.47;5085448;28;20194;-63
2023/03/01 06:13:44;;;;;;;1999.90;999.90;;;;;;;-0.31;100.00;95573.88;5085579;28;20173;-62
2023/03/01 06:16:10;;;;;;;1999.90;999.90;;;;;;;-0.35;100.00;95567.59;5085290;28;20167;-63
2023/03/01 06:18:37;;;;;;;1999.90;999.90;;;;;;;-0.20;100.00;95566.97;5085381;28;20169;-64
2023/03/01 06:21:03;;;;;;;1999.90;999.90;;;;;;;-0.27;100.00;95567.53;5085629;28;20170;-63
2023/03/01 06:23:28;;;;;;;1999.90;999.90;;;;;;;-0.25;100.00;95564.53;5085204;28;20217;-63
2023/03/01 06:25:54;;;;;;;1999.90;999.90;;;;;;;-0.30;100.00;95570.06;5085131;28;20175;-67
2023/03/01 06:28:19;;;;;;;1999.90;999.90;;;;;;;-0.38;100.00;95571.72;5085446;28;20175;-63
2023/03/01 06:30:45;;;;;;;1999.90;999.90;;;;;;;-0.32;100.00;95572.31;5085198;28;20212;-64
2023/03/01 06:33:11;;;;;;;1999.90;999.90;;;;;;;-0.34;100.00;95571.84;5085683;28;20183;-64
2023/03/01 06:35:36;;;;;;;1999.90;999.90;;;;;;;-0.29;100.00;95579.72;5083995;28;20194;-65
2023/03/01 06:38:03;;;;;;;1999.90;999.90;;;;;;;-0.26;100.00;95573.66;5085442;28;20178;-63
2023/03/01 06:40:31;;;;;;;1999.90;999.90;;;;;;;-0.21;100.00;95586.88;5085199;28;20459;-63
2023/03/01 06:42:57;;;;;;;1999.90;999.90;;;;;;;-0.28;100.00;95576.66;5085368;28;20171;-63
2023/03/01 06:45:22;;;;;;;1999.90;999.90;;;;;;;-0.15;100.00;95574.81;5085458;28;20172;-64
2023/03/01 06:47:48;;;;;;;1999.90;999.90;;;;;;;-0.28;100.00;95579.34;5085276;28;20458;-63
2023/03/01 06:50:15;;;;;;;1999.90;999.90;;;;;;;-0.35;100.00;95575.66;5084648;28;20278;-63
2023/03/01 06:52:41;;;;;;;1999.90;999.90;;;;;;;-0.29;100.00;95571.66;5084760;28;20198;-63
2023/03/01 06:55:07;;;;;;;1999.90;999.90;;;;;;;-0.15;100.00;95574.81;5084180;28;20213;-63
2023/03/01 06:57:32;;;;;;;1999.90;999.90;;;;;;;-0.14;100.00;95587.13;5084986;28;20175;-64
2023/03/01 06:59:58;;;;;;;1999.90;999.90;;;;;;;-0.33;100.00;95589.50;5085112;28;20174;-64
2023/03/01 07:02:23;;;;;;;1999.90;999.90;;;;;;;-0.26;100.00;95576.34;5085094;28;20175;-64
2023/03/01 07:04:50;;;;;;;1999.90;999.90;;;;;;;-0.25;100.00;95586.75;5084429;28;20175;-65
2023/03/01 07:07:17;;;;;;;1999.90;999.90;;;;;;;-0.26;100.00;95584.38;5084291;28;20174;-65
2023/03/01 07:09:43;;;;;;;1999.90;999.90;;;;;;;-0.13;100.00;95586.81;5084304;28;20202;-66
2023/03/01 07:12:09;;;;;;;1999.90;999.90;;;;;;;-0.15;100.00;95591.72;5084380;28;20403;-64
2023/03/01 07:14:34;;;;;;;1999.90;999.90;;;;;;;-0.01;100.00;95586.03;5084683;28;20183;-64
2023/03/01 07:16:59;;;;;;;1999.90;999.90;;;;;;;-0.02;100.00;95579.13;5083993;28;20250;-67
2023/03/01 07:19:25;;;;;;;1999.90;999.90;;;;;;;-0.02;100.00;95579.13;5084600;28;20171;-67
2023/03/01 07:21:50;;;;;;;1999.90;999.90;;;;;;;0.11;100.00;95575.34;5084332;28;20162;-64
2023/03/01 07:24:17;;;;;;;1999.90;999.90;;;;;;;0.12;100.00;95581.50;5084051;28;20198;-64
2023/03/01 07:26:42;;;;;;;1999.90;999.90;;;;;;;0.10;100.00;95575.69;5084036;28;20197;-64
2023/03/01 07:29:09;;;;;;;1999.90;999.90;;;;;;;-0.10;100.00;95586.13;5083912;28;20175;-64
2023/03/01 07:31:35;;;;;;;1999.90;999.90;;;;;;;0.03;100.00;95576.22;5083853;28;20213;-69
2023/03/01 07:34:01;;;;;;;1999.90;999.90;;;;;;;0.04;100.00;95583.16;5084505;28;20173;-64
2023/03/01 07:36:26;;;;;;;1999.90;999.90;;;;;;;0.02;100.00;95585.38;5084457;28;20179;-66
2023/03/01 07:38:52;;;;;;;1999.90;999.90;;;;;;;0.00;100.00;95579.59;5084325;28;20185;-64
2023/03/01 07:41:17;;;;;;;1999.90;999.90;;;;;;;0.13;100.00;95578.47;5084369;28;20178;-64
2023/03/01 07:43:42;;;;;;;1999.90;999.90;;;;;;;0.21;100.00;95572.22;5084204;28;20241;-64
2023/03/01 07:46:08;;;;;;;1999.90;999.90;;;;;;;0.28;100.00;95577.06;5083611;28;20172;-63
2023/03/01 07:48:34;;;;;;;1999.90;999.90;;;;;;;0.21;100.00;95582.97;5083787;28;20173;-64
2023/03/01 07:51:01;;;;;;;1999.90;999.90;;;;;;;0.22;100.00;95576.50;5084132;28;20281;-66
2023/03/01 07:53:26;;;;;;;1999.90;999.90;;;;;;;0.19;100.00;95587.91;5083778;28;20192;-66
2023/03/01 07:56:07;;;;;;;1999.90;999.90;;;;;;;0.20;100.00;95581.41;5083733;28;20170;-65
2023/03/01 07:58:35;;;;;;;1999.90;999.90;;;;;;;0.13;100.00;95581.16;5084273;28;20240;-66
2023/03/01 08:01:02;;;;;;;1999.90;999.90;;;;;;;0.14;100.00;95574.66;5084285;28;20169;-66
2023/03/01 08:03:28;;;;;;;1999.90;999.90;;;;;;;0.31;100.00;95582.53;5083564;28;20185;-66
2023/03/01 08:05:53;;;;;;;1999.90;999.90;;;;;;;0.35;100.00;95578.06;5083385;28;20171;-67
2023/03/01 08:08:18;;;;;;;1999.90;999.90;;;;;;;0.43;100.00;95577.19;5083953;28;20187;-64
2023/03/01 08:10:44;;;;;;;1999.90;999.90;;;;;;;0.57;100.00;95571.47;5083466;28;20210;-66
2023/03/01 08:13:09;;;;;;;1999.90;999.90;;;;;;;0.51;100.00;95578.97;5083800;28;20232;-67
2023/03/01 08:15:34;;;;;;;1999.90;999.90;;;;;;;0.64;100.00;95579.78;5083602;28;20176;-67
2023/03/01 08:18:00;;;;;;;1999.90;999.90;;;;;;;0.68;100.00;95577.97;5083018;28;20320;-67
2023/03/01 08:20:26;;;;;;;1999.90;999.90;;;;;;;0.61;100.00;95585.84;5083949;28;20247;-67
2023/03/01 08:22:51;;;;;;;1999.90;999.90;;;;;;;0.59;100.00;95578.09;5083435;28;20236;-67
2023/03/01 08:25:16;;;;;;;1999.90;999.90;;;;;;;0.74;100.00;95580.13;5083326;28;20213;-68
2023/03/01 08:27:42;;;;;;;1999.90;999.90;;;;;;;0.64;100.00;95583.25;5083646;28;20168;-67
2023/03/01 08:30:08;;;;;;;1999.90;999.90;;;;;;;0.87;100.00;95589.75;5083607;28;20241;-67
2023/03/01 08:32:38;;;;;;;1999.90;999.90;;;;;;;0.70;100.00;95581.91;5083170;28;20204;-67
2023/03/01 08:35:04;;;;;;;1999.90;999.90;;;;;;;0.67;100.00;95589.84;5083202;28;20165;-67
2023/03/01 08:37:32;;;;;;;1999.90;999.90;;;;;;;0.88;100.00;95575.19;5083468;28;20179;-67
2023/03/01 08:39:58;;;;;;;1999.90;999.90;;;;;;;1.04;100.00;95580.66;5083178;28;20191;-67
2023/03/01 08:42:23;;;;;;;1999.90;999.90;;;;;;;0.76;100.00;95571.72;5083296;28;20366;-67
2023/03/01 08:44:48;;;;;;;1999.90;999.90;;;;;;;0.90;100.00;95567.56;5083426;28;20231;-67
2023/03/01 08:47:14;;;;;;;1999.90;999.90;;;;;;;1.27;100.00;95571.00;5082873;28;20169;-67
2023/03/01 08:49:39;;;;;;;1999.90;999.90;;;;;;;1.25;100.00;95568.66;5083424;28;20166;-67
2023/03/01 08:52:04;;;;;;;1999.90;999.90;;;;;;;0.95;100.00;95570.03;5083757;28;20397;-66
2023/03/01 08:54:30;;;;;;;1999.90;999.90;;;;;;;1.31;100.00;95571.88;5083061;28;20257;-66
2023/03/01 08:56:55;;;;;;;1999.90;999.90;;;;;;;1.38;100.00;95578.25;5083264;28;20181;-66
2023/03/01 08:59:21;;;;;;;1999.90;999.90;;;;;;;1.50;100.00;95570.16;5085763;28;20172;-66
2023/03/01 09:01:46;;;;;;;1999.90;999.90;;;;;;;1.34;100.00;95563.91;5086928;28;20465;-66
2023/03/01 09:04:12;;;;;;;1999.90;999.90;;;;;;;1.42;100.00;95583.75;5086431;28;20166;-66
2023/03/01 09:06:38;;;;;;;1999.90;999.90;;;;;;;1.40;100.00;95570.63;5086905;28;20168;-66
2023/03/01 09:09:05;;;;;;;1999.90;999.90;;;;;;;1.45;100.00;95578.44;5086685;28;20173;-65
2023/03/01 09:11:30;;;;;;;1999.90;999.90;;;;;;;1.26;100.00;95583.66;5086740;28;20207;-65
2023/03/01 09:13:56;;;;;;;1999.90;999.90;;;;;;;1.31;100.00;95577.28;5086717;28;20189;-65
2023/03/01 09:16:23;;;;;;;1999.90;999.90;;;;;;;1.48;100.00;95572.41;5086845;28;20228;-66
2023/03/01 09:18:51;;;;;;;1999.90;999.90;;;;;;;1.46;100.00;95571.94;5087037;28;20172;-65
2023/03/01 09:21:17;;;;;;;1999.90;999.90;;;;;;;1.35;100.00;95567.41;5086570;28;20173;-65
2023/03/01 09:23:45;;;;;;;1999.90;999.90;;;;;;;1.38;100.00;95570.16;5087038;28;20176;-65
2023/03/01 09:26:21;;;;;;;1999.90;999.90;;;;;;;1.61;100.00;95559.69;5086423;28;20501;-65
2023/03/01 09:28:48;;;;;;;1999.90;999.90;;;;;;;1.63;100.00;95568.19;5087095;28;20169;-64
2023/03/01 09:31:15;;;;;;;1999.90;999.90;;;;;;;1.51;100.00;95565.53;5086680;28;20200;-65
2023/03/01 09:33:42;;;;;;;1999.90;999.90;;;;;;;1.48;100.00;95560.84;5086314;28;20215;-65
2023/03/01 09:36:12;;;;;;;1999.90;999.90;;;;;;;1.73;100.00;95565.00;5086272;28;20214;-65
2023/03/01 09:38:38;;;;;;;1999.90;999.90;;;;;;;1.60;100.00;95569.66;5086251;28;20171;-64
2023/03/01 09:41:11;;;;;;;1999.90;999.90;;;;;;;1.51;100.00;95576.31;5086796;28;20203;-65
2023/03/01 09:43:54;;;;;;;1999.90;999.90;;;;;;;1.68;100.00;95560.66;5086818;28;20165;-64
2023/03/01 09:46:22;;;;;;;1999.90;999.90;;;;;;;1.84;100.00;95553.44;5086155;28;20236;-64
2023/03/01 09:48:59;;;;;;;1999.90;999.90;;;;;;;1.85;100.00;95563.06;5086222;28;20170;-64
2023/03/01 09:51:34;;;;;;;1999.90;999.90;;;;;;;1.97;100.00;95563.00;5086414;28;20246;-64
2023/03/01 09:54:03;;;;;;;1999.90;999.90;;;;;;;1.72;100.00;95566.94;5085963;28;20195;-65
2023/03/01 09:56:34;;;;;;;1999.90;999.90;;;;;;;2.03;100.00;95567.00;5085906;28;20240;-64
2023/03/01 09:59:22;;;;;;;1999.90;999.90;;;;;;;1.97;100.00;95568.38;5086410;28;20172;-63
2023/03/01 10:02:04;;;;;;;1999.90;999.90;;;;;;;1.81;100.00;95567.56;5085521;28;20183;-62
2023/03/01 10:05:05;;;;;;;1999.90;999.90;;;;;;;1.82;100.00;95565.66;5086378;28;20229;-62
2023/03/01 10:07:33;;;;;;;1999.90;999.90;;;;;;;1.60;100.00;95558.13;5086274;28;20211;-61
2023/03/01 10:10:00;;;;;;;1999.90;999.90;;;;;;;1.95;100.00;95562.56;5084203;28;20194;-63
2023/03/01 10:12:32;;;;;;;1999.90;999.90;;;;;;;1.81;100.00;95564.88;5085661;28;20176;-62
2023/03/01 10:15:03;;;;;;;1999.90;999.90;;;;;;;1.87;100.00;95555.44;5086182;28;20161;-61
2023/03/01 10:17:51;;;;;;;1999.90;999.90;;;;;;;1.77;100.00;95552.44;5085682;28;20291;-61
2023/03/01 10:20:21;;;;;;;1999.90;999.90;;;;;;;1.76;100.00;95553.56;5085709;28;20181;-62
2023/03/01 10:22:52;;;;;;;1999.90;999.90;;;;;;;2.05;100.00;95543.22;5086215;28;20245;-62
2023/03/01 10:25:32;;;;;;;1999.90;999.90;;;;;;;2.15;100.00;95558.88;5085420;28;20174;-62
2023/03/01 10:28:20;;;;;;;1999.90;999.90;;;;;;;2.07;100.00;95550.94;5085879;28;20314;-62
2023/03/01 10:30:46;;;;;;;1999.90;999.90;;;;;;;1.92;100.00;95549.78;5079403;28;20280;-62
2023/03/01 10:33:21;;;;;;;1999.90;999.90;;;;;;;2.29;100.00;95545.75;5085865;28;20176;-62
2023/03/01 10:35:48;;;;;;;1999.90;999.90;;;;;;;2.35;100.00;95560.56;5085618;28;20247;-62
2023/03/01 10:38:15;;;;;;;1999.90;999.90;;;;;;;2.70;100.00;95569.50;5085150;28;20180;-62
2023/03/01 10:41:09;;;;;;;1999.90;999.90;;;;;;;2.68;100.00;95555.59;5084866;28;20170;-62
2023/03/01 10:43:51;;;;;;;1999.90;999.90;;;;;;;2.97;100.00;95557.84;5076315;28;20248;-62
2023/03/01 10:46:33;;;;;;;1999.90;999.90;;;;;;;3.12;100.00;95548.13;5085455;28;20166;-63
2023/03/01 10:49:17;;;;;;;1999.90;999.90;;;;;;;3.31;100.00;95550.88;5084862;28;20173;-62
2023/03/01 10:51:46;;;;;;;1999.90;999.90;;;;;;;3.57;100.00;95542.16;5085072;28;20549;-62
2023/03/01 10:54:22;;;;;;;1999.90;999.90;;;;;;;3.94;100.00;95535.19;5084800;28;20189;-62
2023/03/01 10:57:02;;;;;;;1999.90;999.90;;;;;;;4.31;100.00;95536.25;5084719;28;20174;-61
2023/03/01 10:59:32;;;;;;;1999.90;999.90;;;;;;;4.26;100.00;95528.47;5085189;28;20230;-62